Delray Beach, FL (33444)

4:25 PM EST on January 31, 2015 (GMT -0500)
Lake Ida - Garden House | Change Station
CLOSE
Current Station
Personal Weather Station
Location: Delray Beach, FL
Elevation: 0 ft
Nearby Weather Stations
Active Advisory: Coastal Hazard Statement

Elev 0 ft 26.48 °N, 80.07 °W | Updated 5 minutes ago

Partly Cloudy
Partly Cloudy
70.5 °F
Feels Like 76 °F
N
6.8
Wind Variable Wind from ESE

Today
High -- | Low -- °F
--% Chance of Precip.
Yesterday
High -- | Low -- °F
Precip. -- in
7:05 AM 6:02 PM
Waxing Gibbous, 91% visible
Pressure 30.21 in
Visibility 10.0 miles
Clouds Few 4000 ft
Scattered Clouds 5500 ft
Heat Index 76 °F
Dew Point 54 °F
Humidity 56%
Rainfall 0.00 in
Snow Depth Not available.
UV 2 out of 12
Pollen 8.30 out of 12
Air Quality Not available.
Flu Activity Not available.
METAR KPMP 312053Z 07011G21KT 10SM FEW040 SCT055 23/11 A3021 RMK AO2 SLP229 T02280111 55006

More Conditions Fewer Conditions

Pressure 30.21 in
Visibility 10.0 miles
Clouds Few 4000 ft
Scattered Clouds 5500 ft
Heat Index 76 °F
Dew Point 54 °F
Humidity 56%
Rainfall 0.00 in
Snow Depth Not available.
UV 2 out of 12
Pollen 8.30 out of 12
Air Quality Not available.
Flu Activity Not available.
METAR KPMP 312053Z 07011G21KT 10SM FEW040 SCT055 23/11 A3021 RMK AO2 SLP229 T02280111 55006

More Conditions Fewer Conditions

10-Day Weather Forecast

Almanac

Astronomy

Jan. 31, 2015 Rise Set
Actual Time
Civil Twilight
Nautical Twilight
Astronomical Twilight
Moon
Length of Visible Light
Length of Day
Tomorrow will be .
, % of the Moon is Illuminated

Today's Extremes

State Highs State Lows

Community

WunderPhotos

Upload Photos

1,792,209 photos uploaded!

WunderBlogs® & News

Nearby

Air Quality

  Air Quality AQ Index Pollutant
Not available.

Snow Depth

Station Depth Elevation

Earthquake Activity

City Distance Mag. Time & Date
Minimum magnitude displayed is 2.5.

Coastal Water Temperatures

Place Temperature

Nearby Weather Stations